sensor_id;sensor_type;location;lat;lon;timestamp;temperature;humidity
66608;DHT22;53462;39.616;8.824;2022-12-20T00:01:34;11.00;99.90
66608;DHT22;53462;39.616;8.824;2022-12-20T00:04:02;10.90;99.90
66608;DHT22;53462;39.616;8.824;2022-12-20T00:06:28;10.80;99.90
66608;DHT22;53462;39.616;8.824;2022-12-20T00:08:56;10.80;99.90
66608;DHT22;53462;39.616;8.824;2022-12-20T00:11:22;10.80;99.90
66608;DHT22;53462;39.616;8.824;2022-12-20T00:13:49;10.80;99.90
66608;DHT22;53462;39.616;8.824;2022-12-20T00:16:20;10.70;99.90
66608;DHT22;53462;39.616;8.824;2022-12-20T00:18:49;10.70;99.90
66608;DHT22;53462;39.616;8.824;2022-12-20T00:21:15;10.70;99.90
66608;DHT22;53462;39.616;8.824;2022-12-20T00:23:41;10.70;99.90
66608;DHT22;53462;39.616;8.824;2022-12-20T00:26:09;10.60;99.90
66608;DHT22;53462;39.616;8.824;2022-12-20T00:28:36;10.60;99.90
66608;DHT22;53462;39.616;8.824;2022-12-20T00:31:03;10.60;99.90
66608;DHT22;53462;39.616;8.824;2022-12-20T00:33:33;10.60;99.90
66608;DHT22;53462;39.616;8.824;2022-12-20T00:36:00;10.50;99.90
66608;DHT22;53462;39.616;8.824;2022-12-20T00:38:26;10.50;99.90
66608;DHT22;53462;39.616;8.824;2022-12-20T00:43:26;10.50;99.90
66608;DHT22;53462;39.616;8.824;2022-12-20T00:45:52;10.40;99.90
66608;DHT22;53462;39.616;8.824;2022-12-20T00:48:18;10.40;99.90
66608;DHT22;53462;39.616;8.824;2022-12-20T00:50:43;10.30;99.90
66608;DHT22;53462;39.616;8.824;2022-12-20T00:53:09;10.20;99.90
66608;DHT22;53462;39.616;8.824;2022-12-20T00:55:43;9.80;99.90
66608;DHT22;53462;39.616;8.824;2022-12-20T00:58:10;9.30;99.90
66608;DHT22;53462;39.616;8.824;2022-12-20T01:00:37;9.10;99.90
66608;DHT22;53462;39.616;8.824;2022-12-20T01:03:04;8.90;99.90
66608;DHT22;53462;39.616;8.824;2022-12-20T01:05:30;8.90;99.90
66608;DHT22;53462;39.616;8.824;2022-12-20T01:07:56;8.70;99.90
66608;DHT22;53462;39.616;8.824;2022-12-20T01:10:22;8.60;99.90
66608;DHT22;53462;39.616;8.824;2022-12-20T01:12:48;8.80;99.90
66608;DHT22;53462;39.616;8.824;2022-12-20T01:15:14;8.80;99.90
66608;DHT22;53462;39.616;8.824;2022-12-20T01:17:40;8.80;99.90
66608;DHT22;53462;39.616;8.824;2022-12-20T01:20:09;8.80;99.90
66608;DHT22;53462;39.616;8.824;2022-12-20T01:22:35;8.80;99.90
66608;DHT22;53462;39.616;8.824;2022-12-20T01:25:01;8.80;99.90
66608;DHT22;53462;39.616;8.824;2022-12-20T01:27:28;8.90;99.90
66608;DHT22;53462;39.616;8.824;2022-12-20T01:29:54;8.90;99.90
66608;DHT22;53462;39.616;8.824;2022-12-20T01:32:20;8.80;99.90
66608;DHT22;53462;39.616;8.824;2022-12-20T01:34:46;9.10;99.90
66608;DHT22;53462;39.616;8.824;2022-12-20T01:37:12;9.50;99.90
66608;DHT22;53462;39.616;8.824;2022-12-20T01:39:38;9.70;99.90
66608;DHT22;53462;39.616;8.824;2022-12-20T01:42:04;9.70;99.90
66608;DHT22;53462;39.616;8.824;2022-12-20T01:46:56;9.70;99.90
66608;DHT22;53462;39.616;8.824;2022-12-20T01:49:29;9.70;99.90
66608;DHT22;53462;39.616;8.824;2022-12-20T01:52:08;9.20;99.90
66608;DHT22;53462;39.616;8.824;2022-12-20T01:54:59;8.80;99.90
66608;DHT22;53462;39.616;8.824;2022-12-20T01:57:35;8.80;99.90
66608;DHT22;53462;39.616;8.824;2022-12-20T02:00:04;8.80;99.90
66608;DHT22;53462;39.616;8.824;2022-12-20T02:02:40;8.80;99.90
66608;DHT22;53462;39.616;8.824;2022-12-20T02:05:07;8.70;99.90
66608;DHT22;53462;39.616;8.824;2022-12-20T02:07:33;8.90;99.90
66608;DHT22;53462;39.616;8.824;2022-12-20T02:10:01;8.90;99.90
66608;DHT22;53462;39.616;8.824;2022-12-20T02:12:34;8.80;99.90
66608;DHT22;53462;39.616;8.824;2022-12-20T02:29:24;9.20;99.90
66608;DHT22;53462;39.616;8.824;2022-12-20T02:34:56;8.80;99.90
66608;DHT22;53462;39.616;8.824;2022-12-20T02:37:22;8.50;99.90
66608;DHT22;53462;39.616;8.824;2022-12-20T02:39:48;8.50;99.90
66608;DHT22;53462;39.616;8.824;2022-12-20T02:42:18;8.50;99.90
66608;DHT22;53462;39.616;8.824;2022-12-20T02:44:59;8.40;99.90
66608;DHT22;53462;39.616;8.824;2022-12-20T02:50:08;8.50;99.90
66608;DHT22;53462;39.616;8.824;2022-12-20T02:52:35;8.60;99.90
66608;DHT22;53462;39.616;8.824;2022-12-20T02:55:03;8.60;99.90
66608;DHT22;53462;39.616;8.824;2022-12-20T03:00:34;8.20;99.90
66608;DHT22;53462;39.616;8.824;2022-12-20T03:03:03;8.30;99.90
66608;DHT22;53462;39.616;8.824;2022-12-20T03:05:50;8.20;99.90
66608;DHT22;53462;39.616;8.824;2022-12-20T03:08:18;8.00;99.90
66608;DHT22;53462;39.616;8.824;2022-12-20T03:10:45;8.00;99.90
66608;DHT22;53462;39.616;8.824;2022-12-20T03:13:11;7.90;99.90
66608;DHT22;53462;39.616;8.824;2022-12-20T03:15:45;8.10;99.90
66608;DHT22;53462;39.616;8.824;2022-12-20T03:18:11;8.20;99.90
66608;DHT22;53462;39.616;8.824;2022-12-20T03:20:37;8.30;99.90
66608;DHT22;53462;39.616;8.824;2022-12-20T03:23:03;8.40;99.90
66608;DHT22;53462;39.616;8.824;2022-12-20T03:25:29;8.30;99.90
66608;DHT22;53462;39.616;8.824;2022-12-20T03:27:57;8.40;99.90
66608;DHT22;53462;39.616;8.824;2022-12-20T03:30:25;8.60;99.90
66608;DHT22;53462;39.616;8.824;2022-12-20T03:32:51;8.70;99.90
66608;DHT22;53462;39.616;8.824;2022-12-20T03:35:17;8.70;99.90
66608;DHT22;53462;39.616;8.824;2022-12-20T03:37:43;8.70;99.90
66608;DHT22;53462;39.616;8.824;2022-12-20T03:40:10;8.80;99.90
66608;DHT22;53462;39.616;8.824;2022-12-20T03:42:36;8.80;99.90
66608;DHT22;53462;39.616;8.824;2022-12-20T03:45:03;8.80;99.90
66608;DHT22;53462;39.616;8.824;2022-12-20T03:47:30;8.70;99.90
66608;DHT22;53462;39.616;8.824;2022-12-20T03:49:56;8.70;99.90
66608;DHT22;53462;39.616;8.824;2022-12-20T03:52:22;8.60;99.90
66608;DHT22;53462;39.616;8.824;2022-12-20T03:54:48;8.50;99.90
66608;DHT22;53462;39.616;8.824;2022-12-20T03:57:19;8.60;99.90
66608;DHT22;53462;39.616;8.824;2022-12-20T03:59:48;8.40;99.90
66608;DHT22;53462;39.616;8.824;2022-12-20T04:02:17;8.40;99.90
66608;DHT22;53462;39.616;8.824;2022-12-20T04:04:43;8.40;99.90
66608;DHT22;53462;39.616;8.824;2022-12-20T04:07:08;8.80;99.90
66608;DHT22;53462;39.616;8.824;2022-12-20T04:09:37;9.20;99.90
66608;DHT22;53462;39.616;8.824;2022-12-20T04:12:07;9.40;99.90
66608;DHT22;53462;39.616;8.824;2022-12-20T04:14:36;9.50;99.90
66608;DHT22;53462;39.616;8.824;2022-12-20T04:17:03;9.60;99.90
66608;DHT22;53462;39.616;8.824;2022-12-20T04:19:29;9.70;99.90
66608;DHT22;53462;39.616;8.824;2022-12-20T04:21:56;9.80;99.90
66608;DHT22;53462;39.616;8.824;2022-12-20T04:24:25;9.80;99.90
66608;DHT22;53462;39.616;8.824;2022-12-20T04:27:02;9.80;99.90
66608;DHT22;53462;39.616;8.824;2022-12-20T04:29:30;9.80;99.90
66608;DHT22;53462;39.616;8.824;2022-12-20T04:31:56;9.80;99.90
66608;DHT22;53462;39.616;8.824;2022-12-20T04:34:22;9.80;99.90
66608;DHT22;53462;39.616;8.824;2022-12-20T04:36:48;9.80;99.90
66608;DHT22;53462;39.616;8.824;2022-12-20T04:39:23;9.70;99.90
66608;DHT22;53462;39.616;8.824;2022-12-20T04:42:15;9.20;99.90
66608;DHT22;53462;39.616;8.824;2022-12-20T04:44:42;8.50;99.90
66608;DHT22;53462;39.616;8.824;2022-12-20T04:47:09;8.30;99.90
66608;DHT22;53462;39.616;8.824;2022-12-20T04:49:35;8.10;99.90
66608;DHT22;53462;39.616;8.824;2022-12-20T04:52:01;8.00;99.90
66608;DHT22;53462;39.616;8.824;2022-12-20T04:54:48;7.90;99.90
66608;DHT22;53462;39.616;8.824;2022-12-20T04:57:19;7.90;99.90
66608;DHT22;53462;39.616;8.824;2022-12-20T04:59:45;7.80;99.90
66608;DHT22;53462;39.616;8.824;2022-12-20T05:02:13;7.70;99.90
66608;DHT22;53462;39.616;8.824;2022-12-20T05:04:52;7.60;99.90
66608;DHT22;53462;39.616;8.824;2022-12-20T05:07:17;7.60;99.90
66608;DHT22;53462;39.616;8.824;2022-12-20T05:09:49;7.50;99.90
66608;DHT22;53462;39.616;8.824;2022-12-20T05:12:15;7.30;99.90
66608;DHT22;53462;39.616;8.824;2022-12-20T05:14:41;7.20;99.90
66608;DHT22;53462;39.616;8.824;2022-12-20T05:17:08;7.00;99.90
66608;DHT22;53462;39.616;8.824;2022-12-20T05:19:34;6.90;99.90
66608;DHT22;53462;39.616;8.824;2022-12-20T05:22:00;6.80;99.90
66608;DHT22;53462;39.616;8.824;2022-12-20T05:24:59;6.80;99.90
66608;DHT22;53462;39.616;8.824;2022-12-20T05:27:43;6.60;99.90
66608;DHT22;53462;39.616;8.824;2022-12-20T05:30:10;6.60;99.90
66608;DHT22;53462;39.616;8.824;2022-12-20T05:32:36;6.50;99.90
66608;DHT22;53462;39.616;8.824;2022-12-20T05:35:02;6.60;99.90
66608;DHT22;53462;39.616;8.824;2022-12-20T05:37:29;6.60;99.90
66608;DHT22;53462;39.616;8.824;2022-12-20T05:40:02;6.70;99.90
66608;DHT22;53462;39.616;8.824;2022-12-20T05:42:29;6.70;99.90
66608;DHT22;53462;39.616;8.824;2022-12-20T05:44:55;6.70;99.90
66608;DHT22;53462;39.616;8.824;2022-12-20T05:47:21;6.70;99.90
66608;DHT22;53462;39.616;8.824;2022-12-20T05:49:53;6.70;99.90
66608;DHT22;53462;39.616;8.824;2022-12-20T05:52:20;6.80;99.90
66608;DHT22;53462;39.616;8.824;2022-12-20T05:54:46;6.80;99.90
66608;DHT22;53462;39.616;8.824;2022-12-20T05:57:15;6.90;99.90
66608;DHT22;53462;39.616;8.824;2022-12-20T05:59:41;6.90;99.90
66608;DHT22;53462;39.616;8.824;2022-12-20T06:02:15;6.90;99.90
66608;DHT22;53462;39.616;8.824;2022-12-20T06:04:42;6.90;99.90
66608;DHT22;53462;39.616;8.824;2022-12-20T06:07:15;7.00;99.90
66608;DHT22;53462;39.616;8.824;2022-12-20T06:09:43;7.00;99.90
66608;DHT22;53462;39.616;8.824;2022-12-20T06:12:12;7.10;99.90
66608;DHT22;53462;39.616;8.824;2022-12-20T06:14:39;7.30;99.90
66608;DHT22;53462;39.616;8.824;2022-12-20T06:17:05;7.20;99.90
66608;DHT22;53462;39.616;8.824;2022-12-20T06:19:31;7.00;99.90
66608;DHT22;53462;39.616;8.824;2022-12-20T06:21:58;7.10;99.90
66608;DHT22;53462;39.616;8.824;2022-12-20T06:24:40;7.40;99.90
66608;DHT22;53462;39.616;8.824;2022-12-20T06:27:06;7.60;99.90
66608;DHT22;53462;39.616;8.824;2022-12-20T06:29:32;7.70;99.90
66608;DHT22;53462;39.616;8.824;2022-12-20T06:32:04;7.60;99.90
66608;DHT22;53462;39.616;8.824;2022-12-20T06:34:31;7.60;99.90
66608;DHT22;53462;39.616;8.824;2022-12-20T06:36:57;7.70;99.90
66608;DHT22;53462;39.616;8.824;2022-12-20T06:39:26;7.80;99.90
66608;DHT22;53462;39.616;8.824;2022-12-20T06:42:10;7.80;99.90
66608;DHT22;53462;39.616;8.824;2022-12-20T06:44:38;7.80;99.90
66608;DHT22;53462;39.616;8.824;2022-12-20T06:47:04;7.90;99.90
66608;DHT22;53462;39.616;8.824;2022-12-20T06:49:30;7.90;99.90
66608;DHT22;53462;39.616;8.824;2022-12-20T06:51:57;7.90;99.90
66608;DHT22;53462;39.616;8.824;2022-12-20T06:54:31;8.00;99.90
66608;DHT22;53462;39.616;8.824;2022-12-20T06:56:58;8.10;99.90
66608;DHT22;53462;39.616;8.824;2022-12-20T06:59:24;8.00;99.90
66608;DHT22;53462;39.616;8.824;2022-12-20T07:01:51;8.00;99.90
66608;DHT22;53462;39.616;8.824;2022-12-20T07:04:17;8.00;99.90
66608;DHT22;53462;39.616;8.824;2022-12-20T07:06:43;8.00;99.90
66608;DHT22;53462;39.616;8.824;2022-12-20T07:09:09;7.80;99.90
66608;DHT22;53462;39.616;8.824;2022-12-20T07:11:36;7.70;99.90
66608;DHT22;53462;39.616;8.824;2022-12-20T07:14:02;7.70;99.90
66608;DHT22;53462;39.616;8.824;2022-12-20T07:16:28;7.80;99.90
66608;DHT22;53462;39.616;8.824;2022-12-20T07:18:56;7.90;99.90
66608;DHT22;53462;39.616;8.824;2022-12-20T07:21:22;8.00;99.90
66608;DHT22;53462;39.616;8.824;2022-12-20T07:23:48;8.10;99.90
66608;DHT22;53462;39.616;8.824;2022-12-20T07:26:14;8.50;99.90
66608;DHT22;53462;39.616;8.824;2022-12-20T07:28:41;9.00;99.90
66608;DHT22;53462;39.616;8.824;2022-12-20T07:31:07;9.60;99.90
66608;DHT22;53462;39.616;8.824;2022-12-20T07:33:33;10.10;99.90
66608;DHT22;53462;39.616;8.824;2022-12-20T07:36:11;10.30;99.90
66608;DHT22;53462;39.616;8.824;2022-12-20T07:38:37;10.60;99.90
66608;DHT22;53462;39.616;8.824;2022-12-20T07:41:08;10.80;99.90
66608;DHT22;53462;39.616;8.824;2022-12-20T07:43:34;10.70;99.90
66608;DHT22;53462;39.616;8.824;2022-12-20T07:46:00;10.70;99.90
66608;DHT22;53462;39.616;8.824;2022-12-20T07:48:27;10.80;99.90
66608;DHT22;53462;39.616;8.824;2022-12-20T07:50:57;11.20;99.90
66608;DHT22;53462;39.616;8.824;2022-12-20T07:53:24;12.80;99.90
66608;DHT22;53462;39.616;8.824;2022-12-20T07:55:51;15.40;99.90
66608;DHT22;53462;39.616;8.824;2022-12-20T07:58:18;16.30;94.50
66608;DHT22;53462;39.616;8.824;2022-12-20T08:00:45;16.80;92.10
66608;DHT22;53462;39.616;8.824;2022-12-20T08:03:20;17.30;87.20
66608;DHT22;53462;39.616;8.824;2022-12-20T08:05:52;17.90;85.10
66608;DHT22;53462;39.616;8.824;2022-12-20T08:08:19;18.70;81.00
66608;DHT22;53462;39.616;8.824;2022-12-20T08:10:45;19.10;79.20
66608;DHT22;53462;39.616;8.824;2022-12-20T08:13:11;19.90;68.40
66608;DHT22;53462;39.616;8.824;2022-12-20T08:15:37;20.10;64.90
66608;DHT22;53462;39.616;8.824;2022-12-20T08:18:03;19.80;64.50
66608;DHT22;53462;39.616;8.824;2022-12-20T08:20:31;20.10;61.10
66608;DHT22;53462;39.616;8.824;2022-12-20T08:22:58;20.40;60.50
66608;DHT22;53462;39.616;8.824;2022-12-20T08:25:24;20.30;60.10
66608;DHT22;53462;39.616;8.824;2022-12-20T08:27:50;20.50;59.50
66608;DHT22;53462;39.616;8.824;2022-12-20T08:30:17;20.50;59.10
66608;DHT22;53462;39.616;8.824;2022-12-20T08:32:43;20.90;58.00
66608;DHT22;53462;39.616;8.824;2022-12-20T08:35:09;21.10;55.60
66608;DHT22;53462;39.616;8.824;2022-12-20T08:37:35;22.00;52.70
66608;DHT22;53462;39.616;8.824;2022-12-20T08:40:01;21.60;53.70
66608;DHT22;53462;39.616;8.824;2022-12-20T08:42:28;21.30;54.10
66608;DHT22;53462;39.616;8.824;2022-12-20T08:44:54;22.30;51.50
66608;DHT22;53462;39.616;8.824;2022-12-20T08:47:20;21.10;56.00
66608;DHT22;53462;39.616;8.824;2022-12-20T08:49:46;18.60;60.40
66608;DHT22;53462;39.616;8.824;2022-12-20T08:52:12;17.20;69.60
66608;DHT22;53462;39.616;8.824;2022-12-20T08:54:38;17.00;73.70
66608;DHT22;53462;39.616;8.824;2022-12-20T08:57:03;17.60;70.90
66608;DHT22;53462;39.616;8.824;2022-12-20T08:59:29;16.60;73.60
66608;DHT22;53462;39.616;8.824;2022-12-20T09:01:55;19.30;67.80
66608;DHT22;53462;39.616;8.824;2022-12-20T09:04:21;21.70;54.10
66608;DHT22;53462;39.616;8.824;2022-12-20T09:06:47;21.30;54.40
66608;DHT22;53462;39.616;8.824;2022-12-20T09:09:13;22.30;50.90
66608;DHT22;53462;39.616;8.824;2022-12-20T09:11:39;22.90;48.40
66608;DHT22;53462;39.616;8.824;2022-12-20T09:14:05;23.10;48.80
66608;DHT22;53462;39.616;8.824;2022-12-20T09:16:32;23.20;47.80
66608;DHT22;53462;39.616;8.824;2022-12-20T09:19:00;23.40;46.80
66608;DHT22;53462;39.616;8.824;2022-12-20T09:21:27;23.30;46.20
66608;DHT22;53462;39.616;8.824;2022-12-20T09:23:55;23.80;46.50
66608;DHT22;53462;39.616;8.824;2022-12-20T09:26:22;23.50;44.50
66608;DHT22;53462;39.616;8.824;2022-12-20T09:28:49;23.30;45.80
66608;DHT22;53462;39.616;8.824;2022-12-20T09:31:17;24.20;46.10
66608;DHT22;53462;39.616;8.824;2022-12-20T09:33:44;24.80;44.10
66608;DHT22;53462;39.616;8.824;2022-12-20T09:36:12;24.00;43.90
66608;DHT22;53462;39.616;8.824;2022-12-20T09:38:38;24.10;44.70
66608;DHT22;53462;39.616;8.824;2022-12-20T09:41:06;24.50;44.20
66608;DHT22;53462;39.616;8.824;2022-12-20T09:43:33;24.80;43.30
66608;DHT22;53462;39.616;8.824;2022-12-20T09:46:01;25.10;42.80
66608;DHT22;53462;39.616;8.824;2022-12-20T09:48:36;25.10;42.00
66608;DHT22;53462;39.616;8.824;2022-12-20T09:56:31;24.60;42.40
66608;DHT22;53462;39.616;8.824;2022-12-20T09:59:05;25.80;41.40
66608;DHT22;53462;39.616;8.824;2022-12-20T10:01:34;26.50;40.10
66608;DHT22;53462;39.616;8.824;2022-12-20T10:04:16;24.70;42.10
66608;DHT22;53462;39.616;8.824;2022-12-20T10:23:22;24.90;43.70
66608;DHT22;53462;39.616;8.824;2022-12-20T10:25:53;24.30;43.90
66608;DHT22;53462;39.616;8.824;2022-12-20T10:28:27;24.40;44.10
66608;DHT22;53462;39.616;8.824;2022-12-20T10:30:53;24.30;45.30
66608;DHT22;53462;39.616;8.824;2022-12-20T10:33:22;24.70;44.90
66608;DHT22;53462;39.616;8.824;2022-12-20T10:35:49;23.90;45.00
66608;DHT22;53462;39.616;8.824;2022-12-20T10:38:16;25.10;43.30
66608;DHT22;53462;39.616;8.824;2022-12-20T10:43:44;25.30;43.50
66608;DHT22;53462;39.616;8.824;2022-12-20T10:46:13;25.30;42.30
66608;DHT22;53462;39.616;8.824;2022-12-20T10:48:42;25.50;42.60
66608;DHT22;53462;39.616;8.824;2022-12-20T10:53:35;24.80;44.10
66608;DHT22;53462;39.616;8.824;2022-12-20T10:59:21;24.70;44.60
66608;DHT22;53462;39.616;8.824;2022-12-20T11:01:48;24.00;46.10
66608;DHT22;53462;39.616;8.824;2022-12-20T11:04:34;24.50;45.30
66608;DHT22;53462;39.616;8.824;2022-12-20T11:07:03;23.50;47.90
66608;DHT22;53462;39.616;8.824;2022-12-20T11:09:53;23.90;46.10
66608;DHT22;53462;39.616;8.824;2022-12-20T11:12:19;24.70;44.00
66608;DHT22;53462;39.616;8.824;2022-12-20T11:14:46;23.50;47.30
66608;DHT22;53462;39.616;8.824;2022-12-20T11:20:07;24.20;45.60
66608;DHT22;53462;39.616;8.824;2022-12-20T11:26:02;23.40;46.20
66608;DHT22;53462;39.616;8.824;2022-12-20T11:37:08;18.80;65.20
66608;DHT22;53462;39.616;8.824;2022-12-20T11:51:00;18.60;69.70
66608;DHT22;53462;39.616;8.824;2022-12-20T11:53:37;18.20;69.80
66608;DHT22;53462;39.616;8.824;2022-12-20T11:56:16;17.80;72.70
66608;DHT22;53462;39.616;8.824;2022-12-20T11:59:06;17.80;72.10
66608;DHT22;53462;39.616;8.824;2022-12-20T12:01:48;17.90;71.70
66608;DHT22;53462;39.616;8.824;2022-12-20T12:04:26;17.50;73.10
66608;DHT22;53462;39.616;8.824;2022-12-20T12:07:02;17.30;75.40
66608;DHT22;53462;39.616;8.824;2022-12-20T12:12:23;17.70;76.50
66608;DHT22;53462;39.616;8.824;2022-12-20T12:17:47;17.70;75.30
66608;DHT22;53462;39.616;8.824;2022-12-20T12:28:59;17.40;77.00
66608;DHT22;53462;39.616;8.824;2022-12-20T12:31:34;17.90;74.10
66608;DHT22;53462;39.616;8.824;2022-12-20T12:44:56;17.90;73.50
66608;DHT22;53462;39.616;8.824;2022-12-20T12:47:43;17.90;72.90
66608;DHT22;53462;39.616;8.824;2022-12-20T12:50:36;17.80;74.00
66608;DHT22;53462;39.616;8.824;2022-12-20T12:53:35;17.80;75.40
66608;DHT22;53462;39.616;8.824;2022-12-20T13:04:29;18.10;72.20
66608;DHT22;53462;39.616;8.824;2022-12-20T13:07:02;18.20;72.50
66608;DHT22;53462;39.616;8.824;2022-12-20T13:11:56;18.50;70.30
66608;DHT22;53462;39.616;8.824;2022-12-20T13:16:49;18.40;70.30
66608;DHT22;53462;39.616;8.824;2022-12-20T13:19:17;18.40;71.80
66608;DHT22;53462;39.616;8.824;2022-12-20T13:21:49;18.70;69.30
66608;DHT22;53462;39.616;8.824;2022-12-20T13:24:46;18.50;70.70
66608;DHT22;53462;39.616;8.824;2022-12-20T13:27:26;18.50;69.00
66608;DHT22;53462;39.616;8.824;2022-12-20T13:30:23;18.70;69.70
66608;DHT22;53462;39.616;8.824;2022-12-20T13:40:45;19.60;66.40
66608;DHT22;53462;39.616;8.824;2022-12-20T13:45:54;23.40;51.30
66608;DHT22;53462;39.616;8.824;2022-12-20T13:48:26;24.60;48.30
66608;DHT22;53462;39.616;8.824;2022-12-20T13:50:56;24.50;46.40
66608;DHT22;53462;39.616;8.824;2022-12-20T13:53:25;24.10;46.10
66608;DHT22;53462;39.616;8.824;2022-12-20T13:55:52;21.40;52.10
66608;DHT22;53462;39.616;8.824;2022-12-20T13:58:29;22.90;49.50
66608;DHT22;53462;39.616;8.824;2022-12-20T14:01:06;23.50;48.40
66608;DHT22;53462;39.616;8.824;2022-12-20T14:03:40;24.60;46.10
66608;DHT22;53462;39.616;8.824;2022-12-20T14:06:11;24.30;46.20
66608;DHT22;53462;39.616;8.824;2022-12-20T14:08:41;23.30;48.80
66608;DHT22;53462;39.616;8.824;2022-12-20T14:11:16;23.80;47.40
66608;DHT22;53462;39.616;8.824;2022-12-20T14:13:58;23.20;48.20
66608;DHT22;53462;39.616;8.824;2022-12-20T14:16:26;23.20;48.30
66608;DHT22;53462;39.616;8.824;2022-12-20T14:21:22;23.30;49.10
66608;DHT22;53462;39.616;8.824;2022-12-20T14:23:50;23.20;47.90
66608;DHT22;53462;39.616;8.824;2022-12-20T14:26:24;20.60;54.20
66608;DHT22;53462;39.616;8.824;2022-12-20T14:28:53;18.60;64.10
66608;DHT22;53462;39.616;8.824;2022-12-20T14:31:34;17.20;71.10
66608;DHT22;53462;39.616;8.824;2022-12-20T14:34:02;16.90;74.90
66608;DHT22;53462;39.616;8.824;2022-12-20T14:36:29;16.90;77.70
66608;DHT22;53462;39.616;8.824;2022-12-20T14:38:59;16.70;78.70
66608;DHT22;53462;39.616;8.824;2022-12-20T14:41:37;16.40;79.80
66608;DHT22;53462;39.616;8.824;2022-12-20T14:46:33;16.30;84.50
66608;DHT22;53462;39.616;8.824;2022-12-20T14:49:31;16.10;85.10
66608;DHT22;53462;39.616;8.824;2022-12-20T14:54:31;16.10;86.10
66608;DHT22;53462;39.616;8.824;2022-12-20T14:56:57;15.90;87.20
66608;DHT22;53462;39.616;8.824;2022-12-20T14:59:28;15.80;87.80
66608;DHT22;53462;39.616;8.824;2022-12-20T15:01:56;15.80;89.10
66608;DHT22;53462;39.616;8.824;2022-12-20T15:04:33;15.90;90.00
66608;DHT22;53462;39.616;8.824;2022-12-20T15:07:02;15.90;90.20
66608;DHT22;53462;39.616;8.824;2022-12-20T15:09:28;15.70;89.50
66608;DHT22;53462;39.616;8.824;2022-12-20T15:11:57;15.70;89.80
66608;DHT22;53462;39.616;8.824;2022-12-20T15:16:49;15.60;91.60
66608;DHT22;53462;39.616;8.824;2022-12-20T15:19:15;15.60;93.10
66608;DHT22;53462;39.616;8.824;2022-12-20T15:21:41;15.50;94.00
66608;DHT22;53462;39.616;8.824;2022-12-20T15:24:18;15.50;95.40
66608;DHT22;53462;39.616;8.824;2022-12-20T15:26:47;15.40;96.20
66608;DHT22;53462;39.616;8.824;2022-12-20T15:29:22;15.40;97.00
66608;DHT22;53462;39.616;8.824;2022-12-20T15:31:49;15.30;97.80
66608;DHT22;53462;39.616;8.824;2022-12-20T15:36:54;15.20;99.70
66608;DHT22;53462;39.616;8.824;2022-12-20T15:39:20;15.10;99.90
66608;DHT22;53462;39.616;8.824;2022-12-20T15:41:48;15.00;99.90
66608;DHT22;53462;39.616;8.824;2022-12-20T15:44:25;15.00;99.90
66608;DHT22;53462;39.616;8.824;2022-12-20T15:46:51;14.90;99.90
66608;DHT22;53462;39.616;8.824;2022-12-20T15:49:20;14.90;99.90
66608;DHT22;53462;39.616;8.824;2022-12-20T15:51:48;14.70;99.90
66608;DHT22;53462;39.616;8.824;2022-12-20T15:54:29;14.60;99.90
66608;DHT22;53462;39.616;8.824;2022-12-20T15:57:00;14.60;99.90
66608;DHT22;53462;39.616;8.824;2022-12-20T15:59:28;14.40;99.90
66608;DHT22;53462;39.616;8.824;2022-12-20T16:01:54;14.30;99.90
66608;DHT22;53462;39.616;8.824;2022-12-20T16:04:21;14.10;99.90
66608;DHT22;53462;39.616;8.824;2022-12-20T16:06:49;14.10;99.90
66608;DHT22;53462;39.616;8.824;2022-12-20T16:09:15;13.90;99.90
66608;DHT22;53462;39.616;8.824;2022-12-20T16:11:42;13.90;99.90
66608;DHT22;53462;39.616;8.824;2022-12-20T16:14:16;13.80;99.90
66608;DHT22;53462;39.616;8.824;2022-12-20T16:16:43;13.90;99.90
66608;DHT22;53462;39.616;8.824;2022-12-20T16:19:10;13.80;99.90
66608;DHT22;53462;39.616;8.824;2022-12-20T16:21:44;13.80;99.90
66608;DHT22;53462;39.616;8.824;2022-12-20T16:24:15;13.80;99.90
66608;DHT22;53462;39.616;8.824;2022-12-20T16:26:41;13.70;99.90
66608;DHT22;53462;39.616;8.824;2022-12-20T16:29:07;13.60;99.90
66608;DHT22;53462;39.616;8.824;2022-12-20T16:31:35;13.70;99.90
66608;DHT22;53462;39.616;8.824;2022-12-20T16:34:11;13.60;99.90
66608;DHT22;53462;39.616;8.824;2022-12-20T16:36:39;13.60;99.90
66608;DHT22;53462;39.616;8.824;2022-12-20T16:39:05;13.50;99.90
66608;DHT22;53462;39.616;8.824;2022-12-20T16:41:33;13.50;99.90
66608;DHT22;53462;39.616;8.824;2022-12-20T16:44:00;13.40;99.90
66608;DHT22;53462;39.616;8.824;2022-12-20T16:46:29;13.50;99.90
66608;DHT22;53462;39.616;8.824;2022-12-20T16:48:56;13.50;99.90
66608;DHT22;53462;39.616;8.824;2022-12-20T16:51:29;13.50;99.90
66608;DHT22;53462;39.616;8.824;2022-12-20T16:54:22;13.40;99.90
66608;DHT22;53462;39.616;8.824;2022-12-20T16:56:49;13.40;99.90
66608;DHT22;53462;39.616;8.824;2022-12-20T16:59:24;13.30;99.90
66608;DHT22;53462;39.616;8.824;2022-12-20T17:01:54;13.30;99.90
66608;DHT22;53462;39.616;8.824;2022-12-20T17:04:21;13.20;99.90
66608;DHT22;53462;39.616;8.824;2022-12-20T17:06:48;13.20;99.90
66608;DHT22;53462;39.616;8.824;2022-12-20T17:09:14;13.20;99.90
66608;DHT22;53462;39.616;8.824;2022-12-20T17:11:41;13.10;99.90
66608;DHT22;53462;39.616;8.824;2022-12-20T17:14:11;13.10;99.90
66608;DHT22;53462;39.616;8.824;2022-12-20T17:16:37;13.10;99.90
66608;DHT22;53462;39.616;8.824;2022-12-20T17:19:03;13.00;99.90
66608;DHT22;53462;39.616;8.824;2022-12-20T17:21:39;13.00;99.90
66608;DHT22;53462;39.616;8.824;2022-12-20T17:24:15;12.90;99.90
66608;DHT22;53462;39.616;8.824;2022-12-20T17:26:42;12.90;99.90
66608;DHT22;53462;39.616;8.824;2022-12-20T17:29:08;12.90;99.90
66608;DHT22;53462;39.616;8.824;2022-12-20T17:31:42;12.90;99.90
66608;DHT22;53462;39.616;8.824;2022-12-20T17:36:42;12.80;99.90
66608;DHT22;53462;39.616;8.824;2022-12-20T17:39:08;12.70;99.90
66608;DHT22;53462;39.616;8.824;2022-12-20T17:41:34;12.70;99.90
66608;DHT22;53462;39.616;8.824;2022-12-20T17:44:01;12.70;99.90
66608;DHT22;53462;39.616;8.824;2022-12-20T17:46:28;12.70;99.90
66608;DHT22;53462;39.616;8.824;2022-12-20T17:48:54;12.60;99.90
66608;DHT22;53462;39.616;8.824;2022-12-20T17:51:20;12.60;99.90
66608;DHT22;53462;39.616;8.824;2022-12-20T17:53:49;12.60;99.90
66608;DHT22;53462;39.616;8.824;2022-12-20T17:56:22;12.60;99.90
66608;DHT22;53462;39.616;8.824;2022-12-20T17:58:48;12.60;99.90
66608;DHT22;53462;39.616;8.824;2022-12-20T18:03:52;12.60;99.90
66608;DHT22;53462;39.616;8.824;2022-12-20T18:06:19;12.50;99.90
66608;DHT22;53462;39.616;8.824;2022-12-20T18:08:53;12.50;99.90
66608;DHT22;53462;39.616;8.824;2022-12-20T18:11:21;12.50;99.90
66608;DHT22;53462;39.616;8.824;2022-12-20T18:13:51;12.50;99.90
66608;DHT22;53462;39.616;8.824;2022-12-20T18:16:20;12.50;99.90
66608;DHT22;53462;39.616;8.824;2022-12-20T18:18:47;12.50;99.90
66608;DHT22;53462;39.616;8.824;2022-12-20T18:21:15;12.40;99.90
66608;DHT22;53462;39.616;8.824;2022-12-20T18:23:42;12.40;99.90